sensor_id;sensor_type;location;lat;lon;timestamp;temperature;humidity
11934;DHT22;6026;48.784;9.198;2024-03-06T00:01:31;6.30;99.90
11934;DHT22;6026;48.784;9.198;2024-03-06T00:03:56;6.30;99.90
11934;DHT22;6026;48.784;9.198;2024-03-06T00:06:22;6.30;99.90
11934;DHT22;6026;48.784;9.198;2024-03-06T00:08:47;6.30;99.90
11934;DHT22;6026;48.784;9.198;2024-03-06T00:11:13;6.30;99.90
11934;DHT22;6026;48.784;9.198;2024-03-06T00:13:38;6.30;99.90
11934;DHT22;6026;48.784;9.198;2024-03-06T00:16:04;6.30;99.90
11934;DHT22;6026;48.784;9.198;2024-03-06T00:18:30;6.30;99.90
11934;DHT22;6026;48.784;9.198;2024-03-06T00:20:55;6.30;99.90
11934;DHT22;6026;48.784;9.198;2024-03-06T00:23:21;6.30;99.90
11934;DHT22;6026;48.784;9.198;2024-03-06T00:25:46;6.30;99.90
11934;DHT22;6026;48.784;9.198;2024-03-06T00:28:12;6.30;99.90
11934;DHT22;6026;48.784;9.198;2024-03-06T00:30:37;6.30;99.90
11934;DHT22;6026;48.784;9.198;2024-03-06T00:33:03;6.30;99.90
11934;DHT22;6026;48.784;9.198;2024-03-06T00:35:29;6.30;99.90
11934;DHT22;6026;48.784;9.198;2024-03-06T00:37:54;6.30;99.90
11934;DHT22;6026;48.784;9.198;2024-03-06T00:40:20;6.30;99.90
11934;DHT22;6026;48.784;9.198;2024-03-06T00:42:45;6.20;99.90
11934;DHT22;6026;48.784;9.198;2024-03-06T00:45:11;6.20;99.90
11934;DHT22;6026;48.784;9.198;2024-03-06T00:47:37;6.20;99.90
11934;DHT22;6026;48.784;9.198;2024-03-06T00:50:03;6.20;99.90
11934;DHT22;6026;48.784;9.198;2024-03-06T00:52:32;6.20;99.90
11934;DHT22;6026;48.784;9.198;2024-03-06T00:54:58;6.10;99.90
11934;DHT22;6026;48.784;9.198;2024-03-06T00:57:24;6.10;99.90
11934;DHT22;6026;48.784;9.198;2024-03-06T00:59:49;6.00;99.90
11934;DHT22;6026;48.784;9.198;2024-03-06T01:02:15;6.00;99.90
11934;DHT22;6026;48.784;9.198;2024-03-06T01:04:40;6.00;99.90
11934;DHT22;6026;48.784;9.198;2024-03-06T01:07:06;5.90;99.90
11934;DHT22;6026;48.784;9.198;2024-03-06T01:09:32;6.00;99.90
11934;DHT22;6026;48.784;9.198;2024-03-06T01:11:57;5.90;99.90
11934;DHT22;6026;48.784;9.198;2024-03-06T01:14:23;5.90;99.90
11934;DHT22;6026;48.784;9.198;2024-03-06T01:16:48;5.90;99.90
11934;DHT22;6026;48.784;9.198;2024-03-06T01:19:14;5.90;99.90
11934;DHT22;6026;48.784;9.198;2024-03-06T01:21:39;5.90;99.90
11934;DHT22;6026;48.784;9.198;2024-03-06T01:24:05;5.90;99.90
11934;DHT22;6026;48.784;9.198;2024-03-06T01:26:31;5.90;99.90
11934;DHT22;6026;48.784;9.198;2024-03-06T01:28:56;5.90;99.90
11934;DHT22;6026;48.784;9.198;2024-03-06T01:31:22;5.90;99.90
11934;DHT22;6026;48.784;9.198;2024-03-06T01:33:47;5.90;99.90
11934;DHT22;6026;48.784;9.198;2024-03-06T01:36:13;6.00;99.90
11934;DHT22;6026;48.784;9.198;2024-03-06T01:38:38;6.00;99.90
11934;DHT22;6026;48.784;9.198;2024-03-06T01:41:04;6.00;99.90
11934;DHT22;6026;48.784;9.198;2024-03-06T01:43:37;6.00;99.90
11934;DHT22;6026;48.784;9.198;2024-03-06T01:46:03;5.90;99.90
11934;DHT22;6026;48.784;9.198;2024-03-06T01:48:30;5.90;99.90
11934;DHT22;6026;48.784;9.198;2024-03-06T01:50:58;5.90;99.90
11934;DHT22;6026;48.784;9.198;2024-03-06T01:53:27;5.90;99.90
11934;DHT22;6026;48.784;9.198;2024-03-06T01:55:54;5.90;99.90
11934;DHT22;6026;48.784;9.198;2024-03-06T01:58:20;5.90;99.90
11934;DHT22;6026;48.784;9.198;2024-03-06T02:00:47;5.90;99.90
11934;DHT22;6026;48.784;9.198;2024-03-06T02:03:12;5.90;99.90
11934;DHT22;6026;48.784;9.198;2024-03-06T02:05:38;5.90;99.90
11934;DHT22;6026;48.784;9.198;2024-03-06T02:08:04;5.90;99.90
11934;DHT22;6026;48.784;9.198;2024-03-06T02:10:31;5.90;99.90
11934;DHT22;6026;48.784;9.198;2024-03-06T02:12:56;5.90;99.90
11934;DHT22;6026;48.784;9.198;2024-03-06T02:15:23;5.90;99.90
11934;DHT22;6026;48.784;9.198;2024-03-06T02:17:49;5.90;99.90
11934;DHT22;6026;48.784;9.198;2024-03-06T02:20:15;5.90;99.90
11934;DHT22;6026;48.784;9.198;2024-03-06T02:22:41;6.00;99.90
11934;DHT22;6026;48.784;9.198;2024-03-06T02:25:07;6.00;99.90
11934;DHT22;6026;48.784;9.198;2024-03-06T02:27:33;5.90;99.90
11934;DHT22;6026;48.784;9.198;2024-03-06T02:29:58;5.90;99.90
11934;DHT22;6026;48.784;9.198;2024-03-06T02:32:24;5.90;99.90
11934;DHT22;6026;48.784;9.198;2024-03-06T02:34:50;5.90;99.90
11934;DHT22;6026;48.784;9.198;2024-03-06T02:37:16;5.90;99.90
11934;DHT22;6026;48.784;9.198;2024-03-06T02:39:42;5.80;99.90
11934;DHT22;6026;48.784;9.198;2024-03-06T02:42:07;5.90;99.90
11934;DHT22;6026;48.784;9.198;2024-03-06T02:44:33;5.90;99.90
11934;DHT22;6026;48.784;9.198;2024-03-06T02:46:59;5.90;99.90
11934;DHT22;6026;48.784;9.198;2024-03-06T02:49:24;5.90;99.90
11934;DHT22;6026;48.784;9.198;2024-03-06T02:51:50;5.90;99.90
11934;DHT22;6026;48.784;9.198;2024-03-06T02:54:16;5.90;99.90
11934;DHT22;6026;48.784;9.198;2024-03-06T02:56:42;5.90;99.90
11934;DHT22;6026;48.784;9.198;2024-03-06T02:59:08;5.90;99.90
11934;DHT22;6026;48.784;9.198;2024-03-06T03:01:33;5.90;99.90
11934;DHT22;6026;48.784;9.198;2024-03-06T03:03:59;5.90;99.90
11934;DHT22;6026;48.784;9.198;2024-03-06T03:06:25;5.90;99.90
11934;DHT22;6026;48.784;9.198;2024-03-06T03:08:51;5.90;99.90
11934;DHT22;6026;48.784;9.198;2024-03-06T03:11:16;5.90;99.90
11934;DHT22;6026;48.784;9.198;2024-03-06T03:13:42;5.90;99.90
11934;DHT22;6026;48.784;9.198;2024-03-06T03:16:15;5.90;99.90
11934;DHT22;6026;48.784;9.198;2024-03-06T03:18:43;5.90;99.90
11934;DHT22;6026;48.784;9.198;2024-03-06T03:21:09;5.90;99.90
11934;DHT22;6026;48.784;9.198;2024-03-06T03:23:36;5.90;99.90
11934;DHT22;6026;48.784;9.198;2024-03-06T03:26:02;5.90;99.90
11934;DHT22;6026;48.784;9.198;2024-03-06T03:28:29;5.90;99.90
11934;DHT22;6026;48.784;9.198;2024-03-06T03:30:55;5.90;99.90
11934;DHT22;6026;48.784;9.198;2024-03-06T03:33:22;5.90;99.90
11934;DHT22;6026;48.784;9.198;2024-03-06T03:35:48;5.80;99.90
11934;DHT22;6026;48.784;9.198;2024-03-06T03:38:13;5.90;99.90
11934;DHT22;6026;48.784;9.198;2024-03-06T03:40:39;5.90;99.90
11934;DHT22;6026;48.784;9.198;2024-03-06T03:43:04;5.90;99.90
11934;DHT22;6026;48.784;9.198;2024-03-06T03:45:34;5.90;99.90
11934;DHT22;6026;48.784;9.198;2024-03-06T03:48:01;5.90;99.90
11934;DHT22;6026;48.784;9.198;2024-03-06T03:50:28;5.90;99.90
11934;DHT22;6026;48.784;9.198;2024-03-06T03:52:55;5.90;99.90
11934;DHT22;6026;48.784;9.198;2024-03-06T03:55:26;5.90;99.90
11934;DHT22;6026;48.784;9.198;2024-03-06T03:57:51;5.80;99.90
11934;DHT22;6026;48.784;9.198;2024-03-06T04:00:18;5.80;99.90
11934;DHT22;6026;48.784;9.198;2024-03-06T04:02:44;5.80;99.90
11934;DHT22;6026;48.784;9.198;2024-03-06T04:05:09;5.80;99.90
11934;DHT22;6026;48.784;9.198;2024-03-06T04:07:36;5.80;99.90
11934;DHT22;6026;48.784;9.198;2024-03-06T04:10:02;5.80;99.90
11934;DHT22;6026;48.784;9.198;2024-03-06T04:12:28;5.80;99.90
11934;DHT22;6026;48.784;9.198;2024-03-06T04:14:54;5.80;99.90
11934;DHT22;6026;48.784;9.198;2024-03-06T04:17:20;5.70;99.90
11934;DHT22;6026;48.784;9.198;2024-03-06T04:19:45;5.70;99.90
11934;DHT22;6026;48.784;9.198;2024-03-06T04:22:13;5.70;99.90
11934;DHT22;6026;48.784;9.198;2024-03-06T04:24:41;5.70;99.90
11934;DHT22;6026;48.784;9.198;2024-03-06T04:27:07;5.60;99.90
11934;DHT22;6026;48.784;9.198;2024-03-06T04:29:33;5.70;99.90
11934;DHT22;6026;48.784;9.198;2024-03-06T04:31:59;5.60;99.90
11934;DHT22;6026;48.784;9.198;2024-03-06T04:34:24;5.60;99.90
11934;DHT22;6026;48.784;9.198;2024-03-06T04:36:50;5.60;99.90
11934;DHT22;6026;48.784;9.198;2024-03-06T04:39:15;5.60;99.90
11934;DHT22;6026;48.784;9.198;2024-03-06T04:41:41;5.60;99.90
11934;DHT22;6026;48.784;9.198;2024-03-06T04:44:06;5.60;99.90
11934;DHT22;6026;48.784;9.198;2024-03-06T04:46:32;5.60;99.90
11934;DHT22;6026;48.784;9.198;2024-03-06T04:48:57;5.60;99.90
11934;DHT22;6026;48.784;9.198;2024-03-06T04:51:23;5.60;99.90
11934;DHT22;6026;48.784;9.198;2024-03-06T04:53:49;5.60;99.90
11934;DHT22;6026;48.784;9.198;2024-03-06T04:56:15;5.60;99.90
11934;DHT22;6026;48.784;9.198;2024-03-06T04:58:44;5.60;99.90
11934;DHT22;6026;48.784;9.198;2024-03-06T05:01:11;5.60;99.90
11934;DHT22;6026;48.784;9.198;2024-03-06T05:03:36;5.60;99.90
11934;DHT22;6026;48.784;9.198;2024-03-06T05:06:04;5.50;99.90
11934;DHT22;6026;48.784;9.198;2024-03-06T05:08:30;5.60;99.90
11934;DHT22;6026;48.784;9.198;2024-03-06T05:10:56;5.60;99.90
11934;DHT22;6026;48.784;9.198;2024-03-06T05:13:22;5.60;99.90
11934;DHT22;6026;48.784;9.198;2024-03-06T05:15:48;5.60;99.90
11934;DHT22;6026;48.784;9.198;2024-03-06T05:18:13;5.60;99.90
11934;DHT22;6026;48.784;9.198;2024-03-06T05:20:39;5.60;99.90
11934;DHT22;6026;48.784;9.198;2024-03-06T05:23:04;5.60;99.90
11934;DHT22;6026;48.784;9.198;2024-03-06T05:25:30;5.60;99.90
11934;DHT22;6026;48.784;9.198;2024-03-06T05:27:56;5.60;99.90
11934;DHT22;6026;48.784;9.198;2024-03-06T05:30:21;5.60;99.90
11934;DHT22;6026;48.784;9.198;2024-03-06T05:32:47;5.60;99.90
11934;DHT22;6026;48.784;9.198;2024-03-06T05:35:12;5.50;99.90
11934;DHT22;6026;48.784;9.198;2024-03-06T05:37:38;5.50;99.90
11934;DHT22;6026;48.784;9.198;2024-03-06T05:40:04;5.50;99.90
11934;DHT22;6026;48.784;9.198;2024-03-06T05:42:30;5.60;99.90
11934;DHT22;6026;48.784;9.198;2024-03-06T05:44:57;5.50;99.90
11934;DHT22;6026;48.784;9.198;2024-03-06T05:47:26;5.60;99.90
11934;DHT22;6026;48.784;9.198;2024-03-06T05:49:52;5.60;99.90
11934;DHT22;6026;48.784;9.198;2024-03-06T05:52:17;5.60;99.90
11934;DHT22;6026;48.784;9.198;2024-03-06T05:54:43;5.50;99.90
11934;DHT22;6026;48.784;9.198;2024-03-06T05:57:09;5.50;99.90
11934;DHT22;6026;48.784;9.198;2024-03-06T05:59:34;5.50;99.90
11934;DHT22;6026;48.784;9.198;2024-03-06T06:02:00;5.60;99.90
11934;DHT22;6026;48.784;9.198;2024-03-06T06:04:26;5.60;99.90
11934;DHT22;6026;48.784;9.198;2024-03-06T06:06:51;5.60;99.90
11934;DHT22;6026;48.784;9.198;2024-03-06T06:09:17;5.60;99.90
11934;DHT22;6026;48.784;9.198;2024-03-06T06:11:44;5.50;99.90
11934;DHT22;6026;48.784;9.198;2024-03-06T06:14:10;5.50;99.90
11934;DHT22;6026;48.784;9.198;2024-03-06T06:16:37;5.50;99.90
11934;DHT22;6026;48.784;9.198;2024-03-06T06:19:02;5.50;99.90
11934;DHT22;6026;48.784;9.198;2024-03-06T06:21:29;5.50;99.90
11934;DHT22;6026;48.784;9.198;2024-03-06T06:23:54;5.50;99.90
11934;DHT22;6026;48.784;9.198;2024-03-06T06:26:21;5.50;99.90
11934;DHT22;6026;48.784;9.198;2024-03-06T06:28:47;5.60;99.90
11934;DHT22;6026;48.784;9.198;2024-03-06T06:31:12;5.50;99.90
11934;DHT22;6026;48.784;9.198;2024-03-06T06:33:38;5.50;99.90
11934;DHT22;6026;48.784;9.198;2024-03-06T06:36:04;5.50;99.90
11934;DHT22;6026;48.784;9.198;2024-03-06T06:38:29;5.60;99.90
11934;DHT22;6026;48.784;9.198;2024-03-06T06:40:55;5.50;99.90
11934;DHT22;6026;48.784;9.198;2024-03-06T06:43:21;5.60;99.90
11934;DHT22;6026;48.784;9.198;2024-03-06T06:45:47;5.60;99.90
11934;DHT22;6026;48.784;9.198;2024-03-06T06:48:12;5.60;99.90
11934;DHT22;6026;48.784;9.198;2024-03-06T06:50:38;5.60;99.90
11934;DHT22;6026;48.784;9.198;2024-03-06T06:53:03;5.60;99.90
11934;DHT22;6026;48.784;9.198;2024-03-06T06:55:30;5.60;99.90
11934;DHT22;6026;48.784;9.198;2024-03-06T06:57:55;5.60;99.90
11934;DHT22;6026;48.784;9.198;2024-03-06T07:00:21;5.70;99.90
11934;DHT22;6026;48.784;9.198;2024-03-06T07:02:48;5.70;99.90
11934;DHT22;6026;48.784;9.198;2024-03-06T07:05:14;5.80;99.90
11934;DHT22;6026;48.784;9.198;2024-03-06T07:07:40;5.80;99.90
11934;DHT22;6026;48.784;9.198;2024-03-06T07:10:06;5.80;99.90
11934;DHT22;6026;48.784;9.198;2024-03-06T07:12:32;5.80;99.90
11934;DHT22;6026;48.784;9.198;2024-03-06T07:14:58;5.80;99.90
11934;DHT22;6026;48.784;9.198;2024-03-06T07:17:24;5.80;99.90
11934;DHT22;6026;48.784;9.198;2024-03-06T07:19:50;5.80;99.90
11934;DHT22;6026;48.784;9.198;2024-03-06T07:22:17;5.90;99.90
11934;DHT22;6026;48.784;9.198;2024-03-06T07:24:43;5.90;99.90
11934;DHT22;6026;48.784;9.198;2024-03-06T07:27:09;5.90;99.90
11934;DHT22;6026;48.784;9.198;2024-03-06T07:29:35;5.90;99.90
11934;DHT22;6026;48.784;9.198;2024-03-06T07:32:01;5.90;99.90
11934;DHT22;6026;48.784;9.198;2024-03-06T07:34:27;5.90;99.90
11934;DHT22;6026;48.784;9.198;2024-03-06T07:36:53;5.90;99.90
11934;DHT22;6026;48.784;9.198;2024-03-06T07:39:22;5.90;99.90
11934;DHT22;6026;48.784;9.198;2024-03-06T07:41:47;6.00;99.90
11934;DHT22;6026;48.784;9.198;2024-03-06T07:44:13;5.90;99.90
11934;DHT22;6026;48.784;9.198;2024-03-06T07:46:39;6.00;99.90
11934;DHT22;6026;48.784;9.198;2024-03-06T07:49:05;5.90;99.90
11934;DHT22;6026;48.784;9.198;2024-03-06T07:51:34;6.00;99.90
11934;DHT22;6026;48.784;9.198;2024-03-06T07:54:00;6.00;99.90
11934;DHT22;6026;48.784;9.198;2024-03-06T07:56:26;6.00;99.90
11934;DHT22;6026;48.784;9.198;2024-03-06T07:58:52;6.00;99.90
11934;DHT22;6026;48.784;9.198;2024-03-06T08:01:18;6.10;99.90
11934;DHT22;6026;48.784;9.198;2024-03-06T08:03:44;6.10;99.90
11934;DHT22;6026;48.784;9.198;2024-03-06T08:06:10;6.10;99.90
11934;DHT22;6026;48.784;9.198;2024-03-06T08:08:36;6.20;99.90
11934;DHT22;6026;48.784;9.198;2024-03-06T08:11:03;6.20;99.90
11934;DHT22;6026;48.784;9.198;2024-03-06T08:13:28;6.30;99.90
11934;DHT22;6026;48.784;9.198;2024-03-06T08:15:54;6.30;99.90
11934;DHT22;6026;48.784;9.198;2024-03-06T08:18:20;6.30;99.90
11934;DHT22;6026;48.784;9.198;2024-03-06T08:20:45;6.40;99.90
11934;DHT22;6026;48.784;9.198;2024-03-06T08:23:11;6.40;99.90
11934;DHT22;6026;48.784;9.198;2024-03-06T08:25:36;6.40;99.90
11934;DHT22;6026;48.784;9.198;2024-03-06T08:28:03;6.50;99.90
11934;DHT22;6026;48.784;9.198;2024-03-06T08:30:29;6.50;99.90
11934;DHT22;6026;48.784;9.198;2024-03-06T08:32:56;6.50;99.90
11934;DHT22;6026;48.784;9.198;2024-03-06T08:35:22;6.60;99.90
11934;DHT22;6026;48.784;9.198;2024-03-06T08:37:49;6.60;99.90
11934;DHT22;6026;48.784;9.198;2024-03-06T08:40:16;6.70;99.90
11934;DHT22;6026;48.784;9.198;2024-03-06T08:42:48;6.70;99.90
11934;DHT22;6026;48.784;9.198;2024-03-06T08:45:14;6.70;99.90
11934;DHT22;6026;48.784;9.198;2024-03-06T08:47:40;6.70;99.90
11934;DHT22;6026;48.784;9.198;2024-03-06T08:50:06;6.80;99.90
11934;DHT22;6026;48.784;9.198;2024-03-06T08:52:33;6.80;99.90
11934;DHT22;6026;48.784;9.198;2024-03-06T08:55:02;6.80;99.90
11934;DHT22;6026;48.784;9.198;2024-03-06T08:57:31;6.80;99.90
11934;DHT22;6026;48.784;9.198;2024-03-06T08:59:58;6.80;99.90
11934;DHT22;6026;48.784;9.198;2024-03-06T09:02:23;6.90;99.90
11934;DHT22;6026;48.784;9.198;2024-03-06T09:04:49;6.80;99.90
11934;DHT22;6026;48.784;9.198;2024-03-06T09:07:17;6.90;99.90
11934;DHT22;6026;48.784;9.198;2024-03-06T09:09:43;6.90;99.90
11934;DHT22;6026;48.784;9.198;2024-03-06T09:12:10;6.90;99.90
11934;DHT22;6026;48.784;9.198;2024-03-06T09:14:37;6.90;99.90
11934;DHT22;6026;48.784;9.198;2024-03-06T09:17:03;6.90;99.90
11934;DHT22;6026;48.784;9.198;2024-03-06T09:19:29;6.90;99.90
11934;DHT22;6026;48.784;9.198;2024-03-06T09:21:55;6.90;99.90
11934;DHT22;6026;48.784;9.198;2024-03-06T09:24:22;6.90;99.90
11934;DHT22;6026;48.784;9.198;2024-03-06T09:26:51;6.90;99.90
11934;DHT22;6026;48.784;9.198;2024-03-06T09:29:17;7.00;99.90
11934;DHT22;6026;48.784;9.198;2024-03-06T09:31:44;7.00;99.90
11934;DHT22;6026;48.784;9.198;2024-03-06T09:34:12;7.00;99.90
11934;DHT22;6026;48.784;9.198;2024-03-06T09:36:41;7.00;99.90
11934;DHT22;6026;48.784;9.198;2024-03-06T09:39:11;7.10;99.90
11934;DHT22;6026;48.784;9.198;2024-03-06T09:41:37;7.00;99.90
11934;DHT22;6026;48.784;9.198;2024-03-06T09:44:04;7.00;99.90
11934;DHT22;6026;48.784;9.198;2024-03-06T09:46:30;7.00;99.90
11934;DHT22;6026;48.784;9.198;2024-03-06T09:48:56;7.00;99.90
11934;DHT22;6026;48.784;9.198;2024-03-06T09:51:22;7.00;99.90
11934;DHT22;6026;48.784;9.198;2024-03-06T09:53:48;7.00;99.90
11934;DHT22;6026;48.784;9.198;2024-03-06T09:56:17;7.00;99.90
11934;DHT22;6026;48.784;9.198;2024-03-06T09:58:45;6.90;99.90
11934;DHT22;6026;48.784;9.198;2024-03-06T10:01:12;6.90;99.90
11934;DHT22;6026;48.784;9.198;2024-03-06T10:03:39;7.00;99.90
11934;DHT22;6026;48.784;9.198;2024-03-06T10:06:08;7.00;99.90
11934;DHT22;6026;48.784;9.198;2024-03-06T10:08:34;6.90;99.90
11934;DHT22;6026;48.784;9.198;2024-03-06T10:11:00;6.90;99.90
11934;DHT22;6026;48.784;9.198;2024-03-06T10:13:26;6.90;99.90
11934;DHT22;6026;48.784;9.198;2024-03-06T10:16:00;6.90;99.90
11934;DHT22;6026;48.784;9.198;2024-03-06T10:18:30;6.90;99.90
11934;DHT22;6026;48.784;9.198;2024-03-06T10:20:56;6.90;99.90
11934;DHT22;6026;48.784;9.198;2024-03-06T10:23:22;6.90;99.90
11934;DHT22;6026;48.784;9.198;2024-03-06T10:25:49;6.90;99.90
11934;DHT22;6026;48.784;9.198;2024-03-06T10:28:19;7.00;99.90
11934;DHT22;6026;48.784;9.198;2024-03-06T10:30:45;7.00;99.90
11934;DHT22;6026;48.784;9.198;2024-03-06T10:33:12;6.90;99.90
11934;DHT22;6026;48.784;9.198;2024-03-06T10:35:41;7.00;99.90
11934;DHT22;6026;48.784;9.198;2024-03-06T10:38:08;7.10;99.90
11934;DHT22;6026;48.784;9.198;2024-03-06T10:40:35;7.10;99.90
11934;DHT22;6026;48.784;9.198;2024-03-06T10:43:02;7.20;99.90
11934;DHT22;6026;48.784;9.198;2024-03-06T10:48:09;7.20;99.90
11934;DHT22;6026;48.784;9.198;2024-03-06T10:50:39;7.20;99.90
11934;DHT22;6026;48.784;9.198;2024-03-06T10:53:11;7.30;99.90
11934;DHT22;6026;48.784;9.198;2024-03-06T10:55:37;7.20;99.90
11934;DHT22;6026;48.784;9.198;2024-03-06T10:58:07;7.20;99.90
11934;DHT22;6026;48.784;9.198;2024-03-06T11:00:41;7.20;99.90
11934;DHT22;6026;48.784;9.198;2024-03-06T11:03:09;7.20;99.90
11934;DHT22;6026;48.784;9.198;2024-03-06T11:05:41;7.10;99.90
11934;DHT22;6026;48.784;9.198;2024-03-06T11:08:11;7.10;99.90
11934;DHT22;6026;48.784;9.198;2024-03-06T11:10:42;7.10;99.90
11934;DHT22;6026;48.784;9.198;2024-03-06T11:15:46;7.10;99.90
11934;DHT22;6026;48.784;9.198;2024-03-06T11:23:28;7.00;99.90
11934;DHT22;6026;48.784;9.198;2024-03-06T11:28:22;7.00;99.90
11934;DHT22;6026;48.784;9.198;2024-03-06T11:31:09;7.10;99.90
11934;DHT22;6026;48.784;9.198;2024-03-06T11:33:39;7.10;99.90
11934;DHT22;6026;48.784;9.198;2024-03-06T11:36:19;7.00;99.90
11934;DHT22;6026;48.784;9.198;2024-03-06T11:41:26;7.00;99.90
11934;DHT22;6026;48.784;9.198;2024-03-06T11:43:52;7.00;99.90
11934;DHT22;6026;48.784;9.198;2024-03-06T11:46:20;7.00;99.90
11934;DHT22;6026;48.784;9.198;2024-03-06T11:48:56;6.90;99.90
11934;DHT22;6026;48.784;9.198;2024-03-06T11:51:24;6.90;99.90
11934;DHT22;6026;48.784;9.198;2024-03-06T11:53:52;6.90;99.90
11934;DHT22;6026;48.784;9.198;2024-03-06T11:56:19;6.90;99.90
11934;DHT22;6026;48.784;9.198;2024-03-06T11:58:45;6.90;99.90
11934;DHT22;6026;48.784;9.198;2024-03-06T12:01:11;6.90;99.90
11934;DHT22;6026;48.784;9.198;2024-03-06T12:03:37;6.80;99.90
11934;DHT22;6026;48.784;9.198;2024-03-06T12:06:02;6.80;99.90
11934;DHT22;6026;48.784;9.198;2024-03-06T12:08:28;6.80;99.90
11934;DHT22;6026;48.784;9.198;2024-03-06T12:10:54;6.80;99.90
11934;DHT22;6026;48.784;9.198;2024-03-06T12:13:21;6.80;99.90
11934;DHT22;6026;48.784;9.198;2024-03-06T12:15:46;6.80;99.90
11934;DHT22;6026;48.784;9.198;2024-03-06T12:18:12;6.80;99.90
11934;DHT22;6026;48.784;9.198;2024-03-06T12:20:42;6.80;99.90
11934;DHT22;6026;48.784;9.198;2024-03-06T12:23:19;6.80;99.90
11934;DHT22;6026;48.784;9.198;2024-03-06T12:25:45;6.90;99.90
11934;DHT22;6026;48.784;9.198;2024-03-06T12:28:11;6.90;99.90
11934;DHT22;6026;48.784;9.198;2024-03-06T12:30:43;6.90;99.90
11934;DHT22;6026;48.784;9.198;2024-03-06T12:33:10;6.90;99.90
11934;DHT22;6026;48.784;9.198;2024-03-06T12:35:40;6.90;99.90
11934;DHT22;6026;48.784;9.198;2024-03-06T12:38:15;6.90;99.90
11934;DHT22;6026;48.784;9.198;2024-03-06T12:40:44;6.90;99.90
11934;DHT22;6026;48.784;9.198;2024-03-06T12:43:09;6.90;99.90
11934;DHT22;6026;48.784;9.198;2024-03-06T12:45:36;7.00;99.90
11934;DHT22;6026;48.784;9.198;2024-03-06T12:48:03;6.90;99.90
11934;DHT22;6026;48.784;9.198;2024-03-06T12:50:31;6.90;99.90
11934;DHT22;6026;48.784;9.198;2024-03-06T12:52:57;6.90;99.90
11934;DHT22;6026;48.784;9.198;2024-03-06T12:55:23;6.90;99.90
11934;DHT22;6026;48.784;9.198;2024-03-06T12:57:48;6.90;99.90
11934;DHT22;6026;48.784;9.198;2024-03-06T13:00:15;6.90;99.90
11934;DHT22;6026;48.784;9.198;2024-03-06T13:02:44;6.90;99.90
11934;DHT22;6026;48.784;9.198;2024-03-06T13:05:10;6.90;99.90
11934;DHT22;6026;48.784;9.198;2024-03-06T13:07:36;6.90;99.90
11934;DHT22;6026;48.784;9.198;2024-03-06T13:10:03;6.90;99.90
11934;DHT22;6026;48.784;9.198;2024-03-06T13:12:28;6.90;99.90
11934;DHT22;6026;48.784;9.198;2024-03-06T13:14:54;6.90;99.90
11934;DHT22;6026;48.784;9.198;2024-03-06T13:17:20;6.90;99.90
11934;DHT22;6026;48.784;9.198;2024-03-06T13:19:45;6.90;99.90
11934;DHT22;6026;48.784;9.198;2024-03-06T13:22:11;6.90;99.90
11934;DHT22;6026;48.784;9.198;2024-03-06T13:24:36;6.90;99.90
11934;DHT22;6026;48.784;9.198;2024-03-06T13:27:03;6.90;99.90
11934;DHT22;6026;48.784;9.198;2024-03-06T13:29:29;6.90;99.90
11934;DHT22;6026;48.784;9.198;2024-03-06T13:31:55;7.00;99.90
11934;DHT22;6026;48.784;9.198;2024-03-06T13:34:20;7.00;99.90
11934;DHT22;6026;48.784;9.198;2024-03-06T13:36:46;7.00;99.90
11934;DHT22;6026;48.784;9.198;2024-03-06T13:39:11;7.00;99.90
11934;DHT22;6026;48.784;9.198;2024-03-06T13:41:37;7.00;99.90
11934;DHT22;6026;48.784;9.198;2024-03-06T13:44:03;7.00;99.90
11934;DHT22;6026;48.784;9.198;2024-03-06T13:46:28;7.00;99.90
11934;DHT22;6026;48.784;9.198;2024-03-06T13:48:54;7.10;99.90
11934;DHT22;6026;48.784;9.198;2024-03-06T13:51:19;7.00;99.90
11934;DHT22;6026;48.784;9.198;2024-03-06T13:53:45;7.00;99.90
11934;DHT22;6026;48.784;9.198;2024-03-06T13:56:11;7.00;99.90
11934;DHT22;6026;48.784;9.198;2024-03-06T13:58:37;7.00;99.90
11934;DHT22;6026;48.784;9.198;2024-03-06T14:01:06;7.00;99.90
11934;DHT22;6026;48.784;9.198;2024-03-06T14:03:31;7.00;99.90
11934;DHT22;6026;48.784;9.198;2024-03-06T14:05:59;7.00;99.90
11934;DHT22;6026;48.784;9.198;2024-03-06T14:08:25;7.00;99.90
11934;DHT22;6026;48.784;9.198;2024-03-06T14:10:51;7.00;99.90
11934;DHT22;6026;48.784;9.198;2024-03-06T14:13:17;7.00;99.90
11934;DHT22;6026;48.784;9.198;2024-03-06T14:15:42;7.00;99.90
11934;DHT22;6026;48.784;9.198;2024-03-06T14:18:08;7.00;99.90
11934;DHT22;6026;48.784;9.198;2024-03-06T14:20:34;7.00;99.90
11934;DHT22;6026;48.784;9.198;2024-03-06T14:23:00;7.00;99.90
11934;DHT22;6026;48.784;9.198;2024-03-06T14:25:25;7.00;99.90
11934;DHT22;6026;48.784;9.198;2024-03-06T14:27:51;7.00;99.90
11934;DHT22;6026;48.784;9.198;2024-03-06T14:30:16;7.00;99.90
11934;DHT22;6026;48.784;9.198;2024-03-06T14:32:43;7.00;99.90
11934;DHT22;6026;48.784;9.198;2024-03-06T14:35:10;7.00;99.90
11934;DHT22;6026;48.784;9.198;2024-03-06T14:37:35;7.00;99.90
11934;DHT22;6026;48.784;9.198;2024-03-06T14:40:04;7.00;99.90
11934;DHT22;6026;48.784;9.198;2024-03-06T14:42:34;7.10;99.90
11934;DHT22;6026;48.784;9.198;2024-03-06T14:45:00;7.10;99.90
11934;DHT22;6026;48.784;9.198;2024-03-06T14:47:25;7.10;99.90
11934;DHT22;6026;48.784;9.198;2024-03-06T14:49:51;7.10;99.90
11934;DHT22;6026;48.784;9.198;2024-03-06T14:52:17;7.10;99.90
11934;DHT22;6026;48.784;9.198;2024-03-06T14:54:42;7.10;99.90
11934;DHT22;6026;48.784;9.198;2024-03-06T14:57:11;7.10;99.90
11934;DHT22;6026;48.784;9.198;2024-03-06T14:59:37;7.10;99.90
11934;DHT22;6026;48.784;9.198;2024-03-06T15:02:03;7.10;99.90
11934;DHT22;6026;48.784;9.198;2024-03-06T15:04:29;7.10;99.90
11934;DHT22;6026;48.784;9.198;2024-03-06T15:06:55;7.10;99.90
11934;DHT22;6026;48.784;9.198;2024-03-06T15:09:21;7.10;99.90
11934;DHT22;6026;48.784;9.198;2024-03-06T15:11:48;7.10;99.90
11934;DHT22;6026;48.784;9.198;2024-03-06T15:14:16;7.00;99.90
11934;DHT22;6026;48.784;9.198;2024-03-06T15:16:42;7.10;99.90
11934;DHT22;6026;48.784;9.198;2024-03-06T15:19:08;7.10;99.90
11934;DHT22;6026;48.784;9.198;2024-03-06T15:21:34;7.10;99.90
11934;DHT22;6026;48.784;9.198;2024-03-06T15:23:59;7.10;99.90
11934;DHT22;6026;48.784;9.198;2024-03-06T15:26:25;7.00;99.90
11934;DHT22;6026;48.784;9.198;2024-03-06T15:28:51;7.10;99.90
11934;DHT22;6026;48.784;9.198;2024-03-06T15:31:17;7.10;99.90
11934;DHT22;6026;48.784;9.198;2024-03-06T15:33:43;7.10;99.90
11934;DHT22;6026;48.784;9.198;2024-03-06T15:36:11;7.10;99.90
11934;DHT22;6026;48.784;9.198;2024-03-06T15:38:36;7.00;99.90
11934;DHT22;6026;48.784;9.198;2024-03-06T15:41:02;7.00;99.90
11934;DHT22;6026;48.784;9.198;2024-03-06T15:43:27;7.00;99.90
11934;DHT22;6026;48.784;9.198;2024-03-06T15:45:53;7.00;99.90
11934;DHT22;6026;48.784;9.198;2024-03-06T15:48:19;7.00;99.90
11934;DHT22;6026;48.784;9.198;2024-03-06T15:50:44;7.00;99.90
11934;DHT22;6026;48.784;9.198;2024-03-06T15:53:10;7.00;99.90
11934;DHT22;6026;48.784;9.198;2024-03-06T15:55:37;7.00;99.90
11934;DHT22;6026;48.784;9.198;2024-03-06T15:58:02;7.00;99.90
11934;DHT22;6026;48.784;9.198;2024-03-06T16:00:28;7.00;99.90
11934;DHT22;6026;48.784;9.198;2024-03-06T16:02:54;7.00;99.90
11934;DHT22;6026;48.784;9.198;2024-03-06T16:05:19;7.00;99.90
11934;DHT22;6026;48.784;9.198;2024-03-06T16:07:45;7.00;99.90
11934;DHT22;6026;48.784;9.198;2024-03-06T16:10:11;7.00;99.90
11934;DHT22;6026;48.784;9.198;2024-03-06T16:12:36;7.00;99.90